Time;durP1;ratioP1;P1;durP2;ratioP2;P2;SDS_P1;SDS_P2;PMS_P1;PMS_P2;Temp;Humidity;BMP_temperature;BMP_pressure;BME280_temperature;BME280_humidity;BME280_pressure;Samples;Min_cycle;Max_cycle;Signal;HPM_P1;HPM_P2
2021/12/30 00:00:00;;;;;;;17.10;7.65;;;;;;;;;;5027588;28;20032;-54
2021/12/30 00:02:29;;;;;;;19.83;8.80;;;;;;;;;;5024748;28;20164;-56
2021/12/30 00:04:55;;;;;;;16.23;7.40;;;;;;;;;;5023189;28;20033;-52
2021/12/30 00:07:21;;;;;;;13.95;7.10;;;;;;;;;;5028025;28;20025;-56
2021/12/30 00:09:48;;;;;;;16.63;7.72;;;;;;;;;;5027214;28;20026;-55
2021/12/30 00:12:14;;;;;;;16.80;6.90;;;;;;;;;;5031645;28;20103;-53
2021/12/30 00:14:40;;;;;;;14.40;7.90;;;;;;;;;;5019010;28;20053;-54
2021/12/30 00:17:06;;;;;;;17.45;7.90;;;;;;;;;;5021701;28;20551;-55
2021/12/30 00:19:32;;;;;;;14.80;6.78;;;;;;;;;;5025831;28;20105;-53
2021/12/30 00:21:58;;;;;;;16.05;7.13;;;;;;;;;;5023762;28;20022;-55
2021/12/30 00:24:24;;;;;;;13.68;7.13;;;;;;;;;;5018387;28;20034;-52
2021/12/30 00:26:50;;;;;;;13.88;6.75;;;;;;;;;;5018592;28;20105;-52
2021/12/30 00:29:16;;;;;;;16.55;7.15;;;;;;;;;;5028800;28;20029;-53
2021/12/30 00:31:42;;;;;;;15.88;7.07;;;;;;;;;;5028366;28;20033;-53
2021/12/30 00:34:08;;;;;;;13.68;6.35;;;;;;;;;;5030886;28;20134;-51
2021/12/30 00:36:34;;;;;;;15.48;6.68;;;;;;;;;;5025985;28;20046;-55
2021/12/30 00:39:00;;;;;;;14.90;7.53;;;;;;;;;;5030052;28;20366;-55
2021/12/30 00:41:26;;;;;;;13.90;7.40;;;;;;;;;;5029065;28;20033;-52
2021/12/30 00:43:52;;;;;;;18.02;8.15;;;;;;;;;;5029040;28;20528;-53
2021/12/30 00:46:18;;;;;;;13.27;6.35;;;;;;;;;;5021175;28;20076;-52
2021/12/30 00:48:44;;;;;;;16.42;8.32;;;;;;;;;;5029021;28;20493;-55
2021/12/30 00:51:11;;;;;;;21.73;8.43;;;;;;;;;;5028033;28;20057;-54
2021/12/30 00:53:37;;;;;;;18.55;7.97;;;;;;;;;;5029623;28;20025;-50
2021/12/30 00:56:03;;;;;;;14.50;7.53;;;;;;;;;;5035245;28;20033;-54
2021/12/30 00:58:29;;;;;;;14.65;7.13;;;;;;;;;;5033434;28;20033;-55
2021/12/30 01:00:56;;;;;;;15.52;7.13;;;;;;;;;;5029173;28;20030;-55
2021/12/30 01:03:22;;;;;;;14.95;7.07;;;;;;;;;;5024646;28;20036;-56
2021/12/30 01:05:48;;;;;;;14.43;7.43;;;;;;;;;;5029545;28;20030;-56
2021/12/30 01:08:15;;;;;;;14.82;6.57;;;;;;;;;;5024038;28;20108;-54
2021/12/30 01:10:42;;;;;;;14.70;6.75;;;;;;;;;;5022615;28;20482;-54
2021/12/30 01:13:14;;;;;;;14.50;7.05;;;;;;;;;;5031206;28;20022;-53
2021/12/30 01:16:01;;;;;;;14.02;6.47;;;;;;;;;;5029986;28;20454;-52
2021/12/30 01:18:38;;;;;;;13.18;6.65;;;;;;;;;;5024707;28;20100;-56
2021/12/30 01:21:05;;;;;;;12.90;7.40;;;;;;;;;;5034641;28;20026;-55
2021/12/30 01:23:31;;;;;;;18.38;7.47;;;;;;;;;;5032281;28;20026;-53
2021/12/30 01:25:58;;;;;;;17.67;7.78;;;;;;;;;;5030211;28;20116;-55
2021/12/30 01:28:24;;;;;;;17.77;7.93;;;;;;;;;;5028461;28;20029;-55
2021/12/30 01:30:51;;;;;;;13.52;7.47;;;;;;;;;;5031483;28;20109;-56
2021/12/30 01:33:17;;;;;;;14.65;7.63;;;;;;;;;;5025887;28;20037;-54
2021/12/30 01:35:43;;;;;;;13.98;6.47;;;;;;;;;;5034493;28;20120;-54
2021/12/30 01:38:12;;;;;;;17.40;7.50;;;;;;;;;;5031333;28;20101;-55
2021/12/30 01:40:40;;;;;;;18.50;8.30;;;;;;;;;;5033531;28;20031;-56
2021/12/30 01:43:07;;;;;;;13.98;7.13;;;;;;;;;;5022907;28;20470;-54
2021/12/30 01:45:33;;;;;;;14.60;7.35;;;;;;;;;;5024544;28;20034;-56
2021/12/30 01:47:59;;;;;;;18.13;7.88;;;;;;;;;;5022544;28;20034;-56
2021/12/30 01:50:25;;;;;;;15.35;8.02;;;;;;;;;;5025384;28;20053;-51
2021/12/30 01:52:52;;;;;;;13.02;6.53;;;;;;;;;;5025181;28;20539;-55
2021/12/30 01:55:22;;;;;;;16.75;8.10;;;;;;;;;;5031203;28;20457;-51
2021/12/30 01:57:49;;;;;;;15.48;7.18;;;;;;;;;;5030462;28;20389;-52
2021/12/30 02:00:16;;;;;;;15.90;7.38;;;;;;;;;;5034175;28;20499;-51
2021/12/30 02:02:42;;;;;;;15.23;7.97;;;;;;;;;;5028721;28;20026;-52
2021/12/30 02:05:08;;;;;;;15.93;7.00;;;;;;;;;;5032953;28;20432;-50
2021/12/30 02:07:34;;;;;;;16.13;7.32;;;;;;;;;;5028684;28;20105;-50
2021/12/30 02:10:02;;;;;;;13.68;7.25;;;;;;;;;;5032145;28;20029;-51
2021/12/30 02:12:30;;;;;;;15.68;7.47;;;;;;;;;;5024674;28;20105;-54
2021/12/30 02:14:56;;;;;;;18.98;7.70;;;;;;;;;;5029446;28;20040;-52
2021/12/30 02:17:22;;;;;;;14.10;7.28;;;;;;;;;;5034748;28;20368;-53
2021/12/30 02:19:49;;;;;;;16.02;7.55;;;;;;;;;;5036008;28;20113;-56
2021/12/30 02:22:14;;;;;;;12.77;6.53;;;;;;;;;;5027370;28;20037;-55
2021/12/30 02:24:47;;;;;;;13.02;6.72;;;;;;;;;;5036366;28;20108;-56
2021/12/30 02:27:13;;;;;;;16.80;7.75;;;;;;;;;;5040348;28;20091;-54
2021/12/30 02:29:39;;;;;;;17.23;7.30;;;;;;;;;;5034560;28;20028;-53
2021/12/30 02:32:06;;;;;;;13.85;7.20;;;;;;;;;;5037279;28;20101;-51
2021/12/30 02:34:32;;;;;;;14.45;6.68;;;;;;;;;;5036345;28;20478;-55
2021/12/30 02:36:58;;;;;;;13.65;7.20;;;;;;;;;;5036992;28;20541;-53
2021/12/30 02:39:25;;;;;;;15.85;7.82;;;;;;;;;;5037343;28;20495;-51
2021/12/30 02:41:51;;;;;;;14.40;7.32;;;;;;;;;;5038157;28;20017;-56
2021/12/30 02:44:18;;;;;;;14.60;7.85;;;;;;;;;;5026762;28;20086;-56
2021/12/30 02:46:44;;;;;;;12.65;6.60;;;;;;;;;;5027560;28;20030;-53
2021/12/30 02:49:10;;;;;;;12.25;6.72;;;;;;;;;;5023150;28;20060;-53
2021/12/30 02:51:36;;;;;;;14.18;7.38;;;;;;;;;;5026222;28;20037;-52
2021/12/30 02:54:03;;;;;;;13.90;7.30;;;;;;;;;;5020790;28;20275;-50
2021/12/30 02:56:30;;;;;;;16.13;7.78;;;;;;;;;;5032743;28;20029;-52
2021/12/30 02:58:56;;;;;;;13.23;6.32;;;;;;;;;;5020639;28;20036;-52
2021/12/30 03:01:23;;;;;;;14.55;7.07;;;;;;;;;;5032008;28;20041;-52
2021/12/30 03:03:49;;;;;;;12.57;6.47;;;;;;;;;;5023158;28;20481;-50
2021/12/30 03:06:16;;;;;;;12.60;6.47;;;;;;;;;;5029655;28;20467;-52
2021/12/30 03:08:42;;;;;;;10.77;5.80;;;;;;;;;;5030555;28;20112;-54
2021/12/30 03:11:08;;;;;;;9.88;5.75;;;;;;;;;;5029712;28;20033;-56
2021/12/30 03:13:36;;;;;;;11.13;5.72;;;;;;;;;;5031564;28;20025;-55
2021/12/30 03:16:07;;;;;;;10.43;5.72;;;;;;;;;;5029378;28;20172;-52
2021/12/30 03:18:34;;;;;;;10.32;5.38;;;;;;;;;;5032871;28;20032;-53
2021/12/30 03:21:01;;;;;;;9.88;5.05;;;;;;;;;;5031456;28;20032;-54
2021/12/30 03:23:27;;;;;;;7.45;4.05;;;;;;;;;;5030463;28;20562;-56
2021/12/30 03:25:53;;;;;;;8.48;4.38;;;;;;;;;;5025062;28;20139;-54
2021/12/30 03:28:19;;;;;;;6.60;3.97;;;;;;;;;;5026038;28;20036;-56
2021/12/30 03:30:46;;;;;;;8.05;4.40;;;;;;;;;;5027964;28;20057;-56
2021/12/30 03:33:12;;;;;;;7.32;4.47;;;;;;;;;;5028465;28;20025;-54
2021/12/30 03:35:38;;;;;;;7.93;4.40;;;;;;;;;;5030550;28;20474;-52
2021/12/30 03:38:04;;;;;;;8.02;4.75;;;;;;;;;;5035349;28;20053;-51
2021/12/30 03:40:30;;;;;;;9.43;4.65;;;;;;;;;;5043117;28;20100;-53
2021/12/30 03:42:56;;;;;;;9.40;5.55;;;;;;;;;;5037350;28;20104;-50
2021/12/30 03:45:22;;;;;;;9.93;5.35;;;;;;;;;;5042304;28;20104;-56
2021/12/30 03:47:50;;;;;;;9.93;5.03;;;;;;;;;;5024543;28;20021;-52
2021/12/30 03:50:20;;;;;;;11.05;5.53;;;;;;;;;;5041948;28;20032;-53
2021/12/30 03:52:47;;;;;;;12.15;5.70;;;;;;;;;;5020947;28;20369;-53
2021/12/30 03:55:13;;;;;;;13.55;6.10;;;;;;;;;;5033763;28;20055;-50
2021/12/30 03:57:39;;;;;;;11.98;5.93;;;;;;;;;;5025311;28;20044;-52
2021/12/30 04:00:06;;;;;;;14.20;6.30;;;;;;;;;;5034677;28;20037;-54
2021/12/30 04:02:31;;;;;;;10.57;6.00;;;;;;;;;;5022165;28;20103;-53
2021/12/30 04:04:57;;;;;;;12.45;6.70;;;;;;;;;;5037436;28;20096;-54
2021/12/30 04:07:23;;;;;;;18.45;6.65;;;;;;;;;;5030563;28;20029;-52
2021/12/30 04:09:49;;;;;;;20.50;7.43;;;;;;;;;;5031245;28;20471;-56
2021/12/30 04:12:15;;;;;;;17.65;7.15;;;;;;;;;;5030708;28;20414;-55
2021/12/30 04:14:41;;;;;;;16.52;7.50;;;;;;;;;;5021995;28;20037;-52
2021/12/30 04:17:07;;;;;;;17.00;7.43;;;;;;;;;;5020650;28;20108;-55
2021/12/30 04:19:33;;;;;;;21.20;8.45;;;;;;;;;;5027470;28;20021;-51
2021/12/30 04:21:59;;;;;;;18.88;7.20;;;;;;;;;;5038701;28;20112;-56
2021/12/30 04:24:25;;;;;;;15.30;7.75;;;;;;;;;;5029709;28;20358;-55
2021/12/30 04:26:51;;;;;;;19.23;7.85;;;;;;;;;;5022314;28;20370;-55
2021/12/30 04:29:18;;;;;;;21.92;9.05;;;;;;;;;;5028539;28;20056;-54
2021/12/30 04:31:44;;;;;;;18.02;7.72;;;;;;;;;;5033980;28;20117;-54
2021/12/30 04:34:10;;;;;;;23.52;7.60;;;;;;;;;;5031729;28;20049;-56
2021/12/30 04:36:36;;;;;;;21.95;9.25;;;;;;;;;;5026042;28;20046;-54
2021/12/30 04:39:03;;;;;;;27.73;8.68;;;;;;;;;;5035591;28;20018;-51
2021/12/30 04:41:29;;;;;;;22.20;9.05;;;;;;;;;;5035743;28;20040;-56
2021/12/30 04:43:55;;;;;;;22.50;9.40;;;;;;;;;;5022213;28;20026;-55
2021/12/30 04:46:21;;;;;;;17.45;8.48;;;;;;;;;;5028126;28;20025;-55
2021/12/30 04:48:47;;;;;;;24.05;9.18;;;;;;;;;;5035168;28;20481;-55
2021/12/30 04:51:13;;;;;;;21.98;8.75;;;;;;;;;;5034452;28;20044;-52
2021/12/30 04:53:39;;;;;;;25.35;9.10;;;;;;;;;;5032818;28;20033;-52
2021/12/30 04:56:06;;;;;;;21.20;9.68;;;;;;;;;;5026524;28;20073;-56
2021/12/30 04:58:32;;;;;;;23.17;9.27;;;;;;;;;;5022986;28;20100;-50
2021/12/30 05:00:58;;;;;;;23.80;10.07;;;;;;;;;;5028367;28;20436;-51
2021/12/30 05:03:24;;;;;;;32.22;10.63;;;;;;;;;;5034077;28;20032;-54
2021/12/30 05:05:51;;;;;;;29.30;11.00;;;;;;;;;;5025364;28;20068;-51
2021/12/30 05:08:18;;;;;;;24.75;9.55;;;;;;;;;;5028861;28;20036;-51
2021/12/30 05:10:45;;;;;;;19.48;8.48;;;;;;;;;;5033436;28;20777;-51
2021/12/30 05:13:11;;;;;;;19.15;7.97;;;;;;;;;;5026195;28;20025;-52
2021/12/30 05:15:37;;;;;;;22.35;9.60;;;;;;;;;;5034918;28;20037;-55
2021/12/30 05:18:04;;;;;;;20.00;9.60;;;;;;;;;;5030419;28;20068;-52
2021/12/30 05:20:30;;;;;;;22.23;9.73;;;;;;;;;;5025770;28;20076;-56
2021/12/30 05:22:58;;;;;;;27.80;9.75;;;;;;;;;;5030256;28;20033;-56
2021/12/30 05:25:24;;;;;;;28.05;9.85;;;;;;;;;;5021809;28;20052;-56
2021/12/30 05:27:51;;;;;;;20.95;9.85;;;;;;;;;;5030287;28;20029;-55
2021/12/30 05:30:17;;;;;;;21.20;9.52;;;;;;;;;;5030179;28;20029;-56
2021/12/30 05:32:43;;;;;;;22.73;9.50;;;;;;;;;;5030223;28;20026;-54
2021/12/30 05:35:10;;;;;;;26.70;10.32;;;;;;;;;;5032381;28;20099;-55
2021/12/30 05:37:36;;;;;;;24.52;10.05;;;;;;;;;;5032830;28;20041;-55
2021/12/30 05:40:03;;;;;;;18.67;8.43;;;;;;;;;;5027877;28;20025;-55
2021/12/30 05:42:29;;;;;;;21.75;9.30;;;;;;;;;;5040612;28;20034;-55
2021/12/30 05:44:56;;;;;;;24.50;9.75;;;;;;;;;;5041705;28;20484;-56
2021/12/30 05:47:22;;;;;;;20.45;9.27;;;;;;;;;;5035341;28;20034;-54
2021/12/30 05:49:49;;;;;;;22.33;9.85;;;;;;;;;;5029798;28;20109;-54
2021/12/30 05:52:15;;;;;;;21.13;9.93;;;;;;;;;;5026091;28;20108;-56
2021/12/30 05:54:41;;;;;;;25.38;10.25;;;;;;;;;;5043879;28;20166;-56
2021/12/30 05:57:07;;;;;;;20.60;9.95;;;;;;;;;;5040768;28;20453;-56
2021/12/30 05:59:33;;;;;;;24.52;8.55;;;;;;;;;;5028058;28;20048;-56
2021/12/30 06:02:00;;;;;;;16.88;7.35;;;;;;;;;;5032298;28;20026;-53
2021/12/30 06:04:26;;;;;;;21.40;8.68;;;;;;;;;;5038230;28;20031;-55
2021/12/30 06:06:52;;;;;;;17.67;8.68;;;;;;;;;;5037460;28;20468;-50
2021/12/30 06:09:21;;;;;;;20.08;9.38;;;;;;;;;;5039551;28;20111;-51
2021/12/30 06:11:47;;;;;;;22.45;10.13;;;;;;;;;;5032974;28;20440;-50
2021/12/30 06:14:13;;;;;;;20.58;8.82;;;;;;;;;;5037195;28;20040;-54
2021/12/30 06:16:39;;;;;;;22.40;9.77;;;;;;;;;;5037107;28;20385;-54
2021/12/30 06:19:05;;;;;;;21.48;8.63;;;;;;;;;;5043437;28;20373;-56
2021/12/30 06:21:31;;;;;;;20.33;8.10;;;;;;;;;;5041047;28;20112;-56
2021/12/30 06:23:57;;;;;;;22.80;8.00;;;;;;;;;;5040360;28;20033;-56
2021/12/30 06:26:23;;;;;;;20.75;7.60;;;;;;;;;;5031876;28;20030;-56
2021/12/30 06:28:49;;;;;;;19.92;7.32;;;;;;;;;;5029602;28;20048;-55
2021/12/30 06:31:15;;;;;;;17.85;8.27;;;;;;;;;;5038514;28;20030;-56
2021/12/30 06:33:41;;;;;;;17.48;7.93;;;;;;;;;;5038353;28;20040;-55
2021/12/30 06:36:08;;;;;;;16.70;7.47;;;;;;;;;;5035608;28;20125;-53
2021/12/30 06:38:34;;;;;;;16.15;7.45;;;;;;;;;;5032113;28;20429;-52
2021/12/30 06:41:00;;;;;;;14.45;7.72;;;;;;;;;;5035070;28;20036;-53
2021/12/30 06:43:26;;;;;;;18.20;7.15;;;;;;;;;;5036975;28;20026;-52
2021/12/30 06:45:52;;;;;;;17.20;8.35;;;;;;;;;;5033899;28;20045;-52
2021/12/30 06:48:18;;;;;;;12.88;6.55;;;;;;;;;;5037513;28;20040;-51
2021/12/30 06:50:54;;;;;;;13.60;6.55;;;;;;;;;;5037528;28;20034;-53
2021/12/30 06:53:20;;;;;;;15.00;6.78;;;;;;;;;;5025780;28;20021;-52
2021/12/30 06:55:47;;;;;;;13.75;7.35;;;;;;;;;;5042207;28;20112;-56
2021/12/30 06:58:13;;;;;;;17.20;7.60;;;;;;;;;;5039360;28;20462;-53
2021/12/30 07:00:39;;;;;;;20.17;7.28;;;;;;;;;;5026751;28;20105;-54
2021/12/30 07:03:05;;;;;;;18.35;7.55;;;;;;;;;;5028320;28;20079;-56
2021/12/30 07:05:32;;;;;;;14.70;6.93;;;;;;;;;;5022458;28;20458;-55
2021/12/30 07:07:58;;;;;;;15.88;6.40;;;;;;;;;;5032815;28;20505;-55
2021/12/30 07:10:24;;;;;;;17.08;7.30;;;;;;;;;;5029055;28;20067;-55
2021/12/30 07:12:50;;;;;;;16.25;6.68;;;;;;;;;;5028395;28;20037;-53
2021/12/30 07:15:16;;;;;;;12.07;5.57;;;;;;;;;;5023779;28;20496;-50
2021/12/30 07:17:42;;;;;;;13.60;6.25;;;;;;;;;;5033077;28;20032;-55
2021/12/30 07:20:09;;;;;;;14.20;6.63;;;;;;;;;;5026553;28;20025;-56
2021/12/30 07:22:35;;;;;;;15.52;5.90;;;;;;;;;;5032524;28;20464;-55
2021/12/30 07:25:01;;;;;;;14.55;5.55;;;;;;;;;;5026102;28;20393;-55
2021/12/30 07:27:27;;;;;;;19.02;6.82;;;;;;;;;;5030305;28;20457;-55
2021/12/30 07:29:53;;;;;;;16.52;6.75;;;;;;;;;;5022814;28;20044;-56
2021/12/30 07:32:19;;;;;;;17.45;6.93;;;;;;;;;;5028479;28;20030;-55
2021/12/30 07:34:45;;;;;;;16.77;6.63;;;;;;;;;;5017879;28;20076;-55
2021/12/30 07:37:16;;;;;;;21.63;7.57;;;;;;;;;;5025993;28;20095;-54
2021/12/30 07:39:43;;;;;;;14.52;6.95;;;;;;;;;;5026444;28;20041;-50
2021/12/30 07:42:09;;;;;;;11.55;5.88;;;;;;;;;;5030676;28;20036;-56
2021/12/30 07:44:35;;;;;;;16.10;6.93;;;;;;;;;;5032019;28;20446;-53
2021/12/30 07:47:01;;;;;;;18.80;6.93;;;;;;;;;;5029677;28;20482;-56
2021/12/30 07:49:27;;;;;;;13.40;4.82;;;;;;;;;;5029714;28;20085;-55
2021/12/30 07:51:53;;;;;;;13.38;6.20;;;;;;;;;;5031872;28;20071;-56
2021/12/30 07:54:19;;;;;;;16.02;6.30;;;;;;;;;;5031485;28;20029;-55
2021/12/30 07:56:45;;;;;;;20.30;7.47;;;;;;;;;;5032308;28;20030;-56
2021/12/30 07:59:11;;;;;;;16.80;6.35;;;;;;;;;;5031935;28;20144;-53
2021/12/30 08:01:37;;;;;;;17.75;6.95;;;;;;;;;;5030936;28;20030;-53
2021/12/30 08:04:03;;;;;;;11.07;5.97;;;;;;;;;;5025457;28;20056;-53
2021/12/30 08:06:29;;;;;;;19.42;7.03;;;;;;;;;;5031892;28;20028;-54
2021/12/30 08:08:56;;;;;;;19.20;7.07;;;;;;;;;;5029749;28;20025;-51
2021/12/30 08:11:22;;;;;;;13.95;6.20;;;;;;;;;;5028341;28;20035;-52
2021/12/30 08:13:48;;;;;;;11.15;5.82;;;;;;;;;;5027091;28;20051;-50
2021/12/30 08:16:14;;;;;;;16.70;6.82;;;;;;;;;;5027676;28;20116;-54
2021/12/30 08:18:41;;;;;;;11.43;6.22;;;;;;;;;;5031054;28;20108;-56
2021/12/30 08:21:07;;;;;;;12.80;6.45;;;;;;;;;;5028009;28;20155;-55
2021/12/30 08:23:33;;;;;;;17.55;7.00;;;;;;;;;;5030430;28;20025;-56
2021/12/30 08:25:59;;;;;;;15.52;6.55;;;;;;;;;;5026348;28;20434;-55
2021/12/30 08:28:27;;;;;;;13.50;6.20;;;;;;;;;;5029722;28;20693;-53
2021/12/30 08:30:53;;;;;;;16.88;6.72;;;;;;;;;;5031778;28;20036;-55
2021/12/30 08:33:19;;;;;;;19.05;6.43;;;;;;;;;;5031138;28;20029;-55
2021/12/30 08:35:45;;;;;;;14.98;5.68;;;;;;;;;;5031628;28;20144;-53
2021/12/30 08:38:12;;;;;;;11.93;5.30;;;;;;;;;;5030525;28;20092;-57
2021/12/30 08:40:38;;;;;;;16.08;6.25;;;;;;;;;;5031703;28;20022;-56
2021/12/30 08:43:06;;;;;;;15.05;5.55;;;;;;;;;;5026048;28;20057;-53
2021/12/30 08:45:32;;;;;;;12.43;5.80;;;;;;;;;;5026631;28;20377;-54
2021/12/30 08:47:58;;;;;;;16.45;5.63;;;;;;;;;;5024152;28;20029;-54
2021/12/30 08:50:24;;;;;;;15.52;5.50;;;;;;;;;;5029478;28;20029;-55
2021/12/30 08:52:50;;;;;;;14.00;5.57;;;;;;;;;;5024234;28;20381;-56
2021/12/30 08:55:17;;;;;;;17.88;7.40;;;;;;;;;;5031069;28;20049;-54
2021/12/30 08:57:43;;;;;;;20.05;7.07;;;;;;;;;;5030001;28;20070;-56
2021/12/30 09:00:12;;;;;;;18.88;7.80;;;;;;;;;;5023109;28;20036;-55
2021/12/30 09:02:39;;;;;;;14.60;6.22;;;;;;;;;;5017950;28;20607;-54
2021/12/30 09:05:05;;;;;;;13.57;6.22;;;;;;;;;;5029849;28;20098;-54
2021/12/30 09:07:31;;;;;;;11.63;5.68;;;;;;;;;;5029143;28;20049;-52
2021/12/30 09:09:57;;;;;;;13.27;5.90;;;;;;;;;;5026476;28;20037;-52
2021/12/30 09:12:24;;;;;;;18.80;5.97;;;;;;;;;;5024529;28;20048;-52
2021/12/30 09:14:50;;;;;;;14.45;5.80;;;;;;;;;;5023809;28;20517;-55
2021/12/30 09:17:16;;;;;;;16.13;6.32;;;;;;;;;;5030496;28;20124;-50
2021/12/30 09:19:42;;;;;;;14.55;6.03;;;;;;;;;;5034929;28;20032;-53
2021/12/30 09:22:08;;;;;;;14.52;5.80;;;;;;;;;;5029752;28;20038;-56
2021/12/30 09:24:34;;;;;;;12.98;5.65;;;;;;;;;;5032715;28;20055;-55
2021/12/30 09:27:00;;;;;;;11.25;5.28;;;;;;;;;;5029029;28;20083;-56
2021/12/30 09:29:26;;;;;;;18.88;5.03;;;;;;;;;;5033760;28;20044;-56
2021/12/30 09:31:52;;;;;;;10.43;5.35;;;;;;;;;;5033999;28;20347;-56
2021/12/30 09:34:19;;;;;;;10.07;4.93;;;;;;;;;;5032572;28;20051;-54
2021/12/30 09:36:45;;;;;;;11.57;4.65;;;;;;;;;;5023588;28;20470;-51
2021/12/30 09:39:12;;;;;;;14.65;5.10;;;;;;;;;;5027596;28;20052;-55
2021/12/30 09:41:39;;;;;;;10.50;4.38;;;;;;;;;;5033477;28;20021;-54
2021/12/30 09:44:06;;;;;;;13.00;4.68;;;;;;;;;;5026032;28;20113;-56
2021/12/30 09:46:33;;;;;;;11.27;4.28;;;;;;;;;;5027877;28;20469;-56
2021/12/30 09:48:59;;;;;;;10.80;4.32;;;;;;;;;;5024779;28;20025;-56
2021/12/30 09:51:25;;;;;;;14.27;5.75;;;;;;;;;;5027244;28;20087;-54
2021/12/30 09:53:51;;;;;;;10.43;4.25;;;;;;;;;;5034439;28;20117;-53
2021/12/30 09:56:18;;;;;;;12.45;4.72;;;;;;;;;;5039708;28;20036;-52
2021/12/30 09:58:44;;;;;;;12.10;4.30;;;;;;;;;;5037767;28;20100;-54
2021/12/30 10:01:10;;;;;;;11.90;4.93;;;;;;;;;;5029779;28;20029;-51
2021/12/30 10:03:37;;;;;;;10.93;3.95;;;;;;;;;;5021227;28;20030;-56
2021/12/30 10:06:12;;;;;;;12.68;4.70;;;;;;;;;;5021383;28;20041;-55
2021/12/30 10:08:43;;;;;;;13.75;4.40;;;;;;;;;;5018660;28;20034;-54
2021/12/30 10:11:13;;;;;;;10.88;4.80;;;;;;;;;;5026406;28;20022;-56
2021/12/30 10:13:41;;;;;;;7.88;4.57;;;;;;;;;;5032738;28;20026;-56
2021/12/30 10:16:12;;;;;;;10.77;4.45;;;;;;;;;;5018237;28;20042;-56
2021/12/30 10:18:42;;;;;;;7.00;4.03;;;;;;;;;;5032772;28;20028;-56
2021/12/30 10:21:32;;;;;;;12.05;4.90;;;;;;;;;;5023765;28;20030;-57
2021/12/30 10:23:59;;;;;;;11.25;4.15;;;;;;;;;;5025205;28;20132;-55
2021/12/30 10:26:25;;;;;;;11.27;3.78;;;;;;;;;;5028154;28;20034;-56
2021/12/30 10:28:56;;;;;;;9.75;3.67;;;;;;;;;;5029246;28;20106;-56
2021/12/30 10:31:27;;;;;;;15.15;4.47;;;;;;;;;;5025057;28;20113;-56
2021/12/30 10:33:53;;;;;;;11.00;4.30;;;;;;;;;;5032515;28;20370;-56
2021/12/30 10:36:24;;;;;;;10.55;3.92;;;;;;;;;;5030745;28;20052;-52
2021/12/30 10:38:50;;;;;;;13.70;3.97;;;;;;;;;;5030950;28;20030;-56
2021/12/30 10:41:16;;;;;;;12.00;4.28;;;;;;;;;;5025445;28;20025;-55
2021/12/30 10:46:14;;;;;;;9.57;4.05;;;;;;;;;;5028139;28;20478;-53
2021/12/30 10:48:46;;;;;;;15.55;4.68;;;;;;;;;;5033003;28;20037;-51
2021/12/30 10:51:14;;;;;;;14.52;3.97;;;;;;;;;;5029828;28;20093;-52
2021/12/30 10:53:40;;;;;;;15.70;4.32;;;;;;;;;;5030437;28;20108;-56
2021/12/30 10:56:21;;;;;;;11.52;4.70;;;;;;;;;;5026765;28;20484;-57
2021/12/30 10:58:47;;;;;;;8.32;3.65;;;;;;;;;;5032959;28;20045;-52
2021/12/30 11:01:14;;;;;;;8.85;3.47;;;;;;;;;;5028651;28;20426;-56
2021/12/30 11:03:42;;;;;;;8.43;3.72;;;;;;;;;;5030198;28;20067;-55
2021/12/30 11:06:17;;;;;;;6.43;3.50;;;;;;;;;;5025909;28;20116;-57
2021/12/30 11:08:43;;;;;;;13.02;4.03;;;;;;;;;;5023309;28;20036;-55
2021/12/30 11:11:26;;;;;;;8.68;4.03;;;;;;;;;;5030315;28;20133;-54
2021/12/30 11:14:02;;;;;;;9.10;3.85;;;;;;;;;;5023262;28;20039;-57
2021/12/30 11:16:28;;;;;;;10.23;4.88;;;;;;;;;;5026672;28;20045;-57
2021/12/30 11:18:58;;;;;;;10.98;4.03;;;;;;;;;;5039701;28;20046;-54
2021/12/30 11:21:36;;;;;;;14.57;4.55;;;;;;;;;;5034891;28;20033;-56
2021/12/30 11:24:03;;;;;;;11.25;4.53;;;;;;;;;;5031550;28;20060;-56
2021/12/30 11:26:29;;;;;;;10.50;4.30;;;;;;;;;;5028245;28;20029;-57
2021/12/30 11:28:56;;;;;;;14.30;4.85;;;;;;;;;;5033785;28;20069;-56
2021/12/30 11:31:22;;;;;;;17.55;4.97;;;;;;;;;;5033239;28;20508;-57
2021/12/30 11:33:49;;;;;;;12.27;5.05;;;;;;;;;;5028480;28;20045;-57
2021/12/30 11:36:17;;;;;;;9.23;4.93;;;;;;;;;;5022261;28;20502;-56
2021/12/30 11:38:43;;;;;;;15.77;5.13;;;;;;;;;;5034359;28;20441;-57
2021/12/30 11:41:16;;;;;;;9.70;4.38;;;;;;;;;;5031662;28;20438;-56
2021/12/30 11:43:43;;;;;;;11.15;4.93;;;;;;;;;;5026603;28;20394;-51
2021/12/30 11:46:29;;;;;;;9.55;4.65;;;;;;;;;;5034193;28;20103;-56
2021/12/30 11:48:57;;;;;;;14.75;5.60;;;;;;;;;;5030926;28;20025;-56
2021/12/30 11:51:23;;;;;;;11.60;4.65;;;;;;;;;;5026081;28;20033;-56
2021/12/30 11:53:52;;;;;;;12.10;5.00;;;;;;;;;;5023187;28;20035;-54
2021/12/30 11:56:19;;;;;;;18.02;5.65;;;;;;;;;;5031401;28;20113;-56
2021/12/30 11:58:47;;;;;;;10.40;5.22;;;;;;;;;;5022519;28;20461;-56
2021/12/30 12:01:13;;;;;;;15.65;6.30;;;;;;;;;;5026337;28;20025;-57
2021/12/30 12:03:55;;;;;;;14.65;5.95;;;;;;;;;;5026221;28;20021;-56
2021/12/30 12:06:42;;;;;;;14.25;5.00;;;;;;;;;;5021687;28;20113;-51
2021/12/30 12:09:12;;;;;;;14.35;6.03;;;;;;;;;;5019956;28;20466;-54
2021/12/30 12:11:41;;;;;;;18.17;5.55;;;;;;;;;;5024281;28;20061;-54
2021/12/30 12:14:11;;;;;;;12.55;4.93;;;;;;;;;;5028418;28;20052;-56
2021/12/30 12:16:46;;;;;;;15.30;4.85;;;;;;;;;;5018494;28;20064;-53
2021/12/30 12:19:12;;;;;;;14.43;5.22;;;;;;;;;;5031957;28;20028;-56
2021/12/30 12:21:40;;;;;;;11.98;5.53;;;;;;;;;;5027451;28;20021;-56
2021/12/30 12:24:21;;;;;;;14.52;5.38;;;;;;;;;;5023708;28;20094;-53
2021/12/30 12:26:48;;;;;;;12.98;4.63;;;;;;;;;;5014454;28;20777;-54
2021/12/30 12:29:27;;;;;;;16.83;4.90;;;;;;;;;;5021071;28;20526;-54
2021/12/30 12:31:55;;;;;;;9.80;4.47;;;;;;;;;;5028508;28;20032;-56
2021/12/30 12:34:39;;;;;;;18.02;6.13;;;;;;;;;;5020686;28;20032;-51
2021/12/30 12:37:26;;;;;;;17.75;5.05;;;;;;;;;;5023626;28;20521;-55
2021/12/30 12:40:00;;;;;;;15.82;5.07;;;;;;;;;;5021831;28;20097;-53
2021/12/30 12:42:43;;;;;;;12.25;4.15;;;;;;;;;;5026600;28;20030;-56
2021/12/30 12:45:17;;;;;;;12.38;5.43;;;;;;;;;;5023458;28;20462;-56
2021/12/30 12:47:43;;;;;;;;;;;;;;;;;;5020906;28;20117;-55
2021/12/30 12:50:09;;;;;;;11.38;5.03;;;;;;;;;;5031956;28;19960;-52
2021/12/30 12:52:42;;;;;;;12.27;4.28;;;;;;;;;;5033120;28;20076;-53
2021/12/30 12:55:09;;;;;;;16.60;4.78;;;;;;;;;;5020218;28;20079;-53
2021/12/30 12:57:35;;;;;;;11.95;4.55;;;;;;;;;;5023867;28;20041;-55
2021/12/30 13:00:01;;;;;;;14.13;4.07;;;;;;;;;;5027194;28;20033;-56
2021/12/30 13:02:27;;;;;;;13.43;4.57;;;;;;;;;;5025692;28;20025;-53
2021/12/30 13:05:06;;;;;;;14.00;4.53;;;;;;;;;;5024117;28;20065;-55
2021/12/30 13:07:34;;;;;;;10.25;3.97;;;;;;;;;;5021891;28;20024;-50
2021/12/30 13:10:00;;;;;;;11.18;4.63;;;;;;;;;;5027962;28;20045;-52
2021/12/30 13:12:26;;;;;;;8.50;3.58;;;;;;;;;;5029579;28;20028;-54
2021/12/30 13:14:52;;;;;;;8.43;3.75;;;;;;;;;;5026459;28;20033;-53
2021/12/30 13:17:18;;;;;;;9.13;3.63;;;;;;;;;;5020472;28;20049;-54
2021/12/30 13:19:46;;;;;;;10.43;4.10;;;;;;;;;;5017011;28;20036;-51
2021/12/30 13:22:13;;;;;;;14.23;3.72;;;;;;;;;;5021950;28;20022;-56
2021/12/30 13:24:44;;;;;;;9.52;4.38;;;;;;;;;;5024825;28;20032;-56
2021/12/30 13:27:16;;;;;;;11.05;3.80;;;;;;;;;;5029511;28;20029;-53
2021/12/30 13:29:48;;;;;;;11.43;3.78;;;;;;;;;;5028955;28;20130;-53
2021/12/30 13:32:14;;;;;;;12.55;3.55;;;;;;;;;;5030477;28;20478;-51
2021/12/30 13:34:57;;;;;;;8.85;3.42;;;;;;;;;;5023535;28;20040;-55
2021/12/30 13:37:25;;;;;;;6.90;3.10;;;;;;;;;;5032871;28;20061;-56
2021/12/30 13:39:55;;;;;;;8.38;3.20;;;;;;;;;;5031340;28;20025;-56
2021/12/30 13:42:21;;;;;;;8.95;3.45;;;;;;;;;;5038484;28;20428;-56
2021/12/30 13:44:49;;;;;;;10.55;3.13;;;;;;;;;;5026859;28;20025;-55
2021/12/30 13:47:15;;;;;;;6.82;3.03;;;;;;;;;;5032223;28;20031;-53
2021/12/30 13:49:41;;;;;;;8.27;2.67;;;;;;;;;;5028951;28;20034;-50
2021/12/30 13:52:07;;;;;;;6.95;2.45;;;;;;;;;;5028888;28;20568;-52
2021/12/30 13:54:33;;;;;;;6.47;3.13;;;;;;;;;;5034251;28;20056;-53
2021/12/30 13:56:59;;;;;;;8.88;3.00;;;;;;;;;;5039512;28;20063;-52
2021/12/30 13:59:29;;;;;;;5.75;2.90;;;;;;;;;;5029762;28;20026;-54
2021/12/30 14:01:59;;;;;;;9.38;2.90;;;;;;;;;;5024264;28;20037;-51
2021/12/30 14:04:28;;;;;;;7.05;3.13;;;;;;;;;;5022583;28;20482;-54
2021/12/30 14:06:58;;;;;;;7.82;2.40;;;;;;;;;;5034877;28;20048;-56
2021/12/30 14:09:24;;;;;;;7.28;2.55;;;;;;;;;;5026178;28;20121;-56
2021/12/30 14:11:53;;;;;;;6.20;2.08;;;;;;;;;;5037893;28;20029;-57
2021/12/30 14:14:24;;;;;;;5.68;2.45;;;;;;;;;;5026152;28;20037;-55
2021/12/30 14:16:54;;;;;;;7.07;3.17;;;;;;;;;;5032808;28;20042;-51
2021/12/30 14:19:27;;;;;;;6.35;2.40;;;;;;;;;;5029320;28;20872;-56
2021/12/30 14:21:53;;;;;;;4.97;2.45;;;;;;;;;;5030726;28;20030;-56
2021/12/30 14:24:24;;;;;;;4.45;2.20;;;;;;;;;;5035339;28;20140;-52
2021/12/30 14:26:55;;;;;;;4.03;2.15;;;;;;;;;;5035881;28;20347;-55
2021/12/30 14:29:23;;;;;;;6.15;2.35;;;;;;;;;;5033831;28;20125;-51
2021/12/30 14:31:56;;;;;;;4.53;2.10;;;;;;;;;;5022835;28;20096;-55
2021/12/30 14:34:26;;;;;;;3.50;2.03;;;;;;;;;;5028578;28;20036;-55